Terminal Aerodrome Forecast
Issued by NWS

Home | Current Version | Previous Version | Text Only | Print | Product List | Glossary On
Versions: 1 2 3 4 5 6 7 8 9 10 11 12 13
482
FTUS45 KREV 232324
TAFMMH
TAF
KMMH 232324Z 2400/2424 29012G19KT P6SM VCSH SCT100 BKN180
     FM240400 28006KT P6SM SKC
     FM241800 12009KT P6SM SCT100 BKN200=

USA.gov is the U.S. government's official web portal to all federal, state and local government web resources and services.